Time;durP1;ratioP1;P1;durP2;ratioP2;P2;SDS_P1;SDS_P2;PMS_P1;PMS_P2;Temp;Humidity;BMP_temperature;BMP_pressure;BME280_temperature;BME280_humidity;BME280_pressure;Samples;Min_cycle;Max_cycle;Signal;HPM_P1;HPM_P2
2023/11/18 19:50:27;;;;;;;;;13.00;12.00;;;;;;;;5033588;23;45570;-75
2023/11/18 19:52:52;;;;;;;;;12.00;11.33;;;;;;;;4908386;28;45501;-76
2023/11/18 19:55:17;;;;;;;;;12.67;11.33;;;;;;;;4922313;28;48221;-77
2023/11/18 19:57:43;;;;;;;;;11.67;11.67;;;;;;;;4914261;28;45296;-76
2023/11/18 20:00:08;;;;;;;;;15.67;14.00;;;;;;;;4904931;28;45289;-76
2023/11/18 20:02:34;;;;;;;;;12.67;12.67;;;;;;;;4904570;28;45534;-76
2023/11/18 20:05:00;;;;;;;;;12.00;9.33;;;;;;;;4902913;29;47580;-76
2023/11/18 20:07:25;;;;;;;;;11.67;11.33;;;;;;;;4921768;28;45769;-75
2023/11/18 20:09:51;;;;;;;;;12.33;12.00;;;;;;;;4922370;28;45901;-76
2023/11/18 20:12:16;;;;;;;;;12.00;11.67;;;;;;;;4922316;28;46476;-76
2023/11/18 20:14:41;;;;;;;;;13.25;11.25;;;;;;;;4922657;28;46021;-76
2023/11/18 20:17:07;;;;;;;;;13.00;12.67;;;;;;;;4923524;28;45380;-76
2023/11/18 20:19:33;;;;;;;;;15.00;12.67;;;;;;;;4921933;28;45378;-76
2023/11/18 20:22:00;;;;;;;;;12.00;11.33;;;;;;;;4923263;28;45314;-76
2023/11/18 20:24:25;;;;;;;;;8.67;8.67;;;;;;;;4906237;28;45319;-75
2023/11/18 20:26:50;;;;;;;;;12.00;12.00;;;;;;;;4904210;28;45351;-75
2023/11/18 20:29:15;;;;;;;;;19.25;17.75;;;;;;;;4904656;28;45234;-75
2023/11/18 20:31:40;;;;;;;;;12.67;12.00;;;;;;;;4903670;28;45307;-75
2023/11/18 20:34:06;;;;;;;;;14.00;11.00;;;;;;;;4903554;29;45332;-76
2023/11/18 20:36:31;;;;;;;;;13.67;11.00;;;;;;;;4902664;29;45420;-76
2023/11/18 20:38:56;;;;;;;;;11.00;11.00;;;;;;;;4902854;29;45283;-76
2023/11/18 20:41:22;;;;;;;;;18.00;16.00;;;;;;;;4903677;29;45416;-76
2023/11/18 20:43:47;;;;;;;;;10.33;10.33;;;;;;;;4903862;29;45232;-76
2023/11/18 20:46:14;;;;;;;;;14.67;11.00;;;;;;;;4903957;29;45264;-76
2023/11/18 20:48:39;;;;;;;;;9.67;9.67;;;;;;;;4902311;29;45202;-76
2023/11/18 20:51:06;;;;;;;;;8.33;8.00;;;;;;;;4901927;29;45223;-75
2023/11/18 20:53:32;;;;;;;;;9.33;8.00;;;;;;;;4883376;29;47540;-76
2023/11/18 20:55:57;;;;;;;;;13.00;10.00;;;;;;;;4884718;29;45339;-76
2023/11/18 20:58:22;;;;;;;;;8.00;8.00;;;;;;;;4915499;28;45591;-76
2023/11/18 21:00:47;;;;;;;;;12.67;11.33;;;;;;;;4921324;28;46116;-76
2023/11/18 21:03:13;;;;;;;;;10.67;10.67;;;;;;;;4922438;28;46187;-77
2023/11/18 21:05:38;;;;;;;;;9.00;8.00;;;;;;;;4921151;28;45362;-76
2023/11/18 21:08:03;;;;;;;;;11.00;11.00;;;;;;;;4922867;28;45531;-76
2023/11/18 21:10:32;;;;;;;;;9.33;9.33;;;;;;;;4922137;28;45409;-75
2023/11/18 21:12:57;;;;;;;;;9.00;8.33;;;;;;;;4922498;28;45325;-76
2023/11/18 21:15:24;;;;;;;;;10.33;10.33;;;;;;;;4922589;28;45144;-75
2023/11/18 21:17:49;;;;;;;;;11.67;10.00;;;;;;;;4921450;28;45251;-76
2023/11/18 21:20:15;;;;;;;;;8.67;7.33;;;;;;;;4922220;28;45408;-76
2023/11/18 21:22:42;;;;;;;;;7.00;6.67;;;;;;;;4922171;28;46301;-76
2023/11/18 21:25:11;;;;;;;;;8.00;8.00;;;;;;;;4921841;28;45385;-75
2023/11/18 21:27:39;;;;;;;;;9.00;7.00;;;;;;;;4922371;28;45180;-77
2023/11/18 21:30:05;;;;;;;;;9.00;9.00;;;;;;;;4921039;28;47130;-75
2023/11/18 21:32:31;;;;;;;;;9.00;9.00;;;;;;;;4922206;28;47493;-75
2023/11/18 21:34:56;;;;;;;;;7.33;7.00;;;;;;;;4909389;28;45525;-74
2023/11/18 21:37:21;;;;;;;;;8.25;8.25;;;;;;;;4884443;29;45392;-75
2023/11/18 21:39:46;;;;;;;;;7.33;7.33;;;;;;;;4884449;29;45339;-76
2023/11/18 21:42:13;;;;;;;;;9.00;9.00;;;;;;;;4884359;29;46175;-76
2023/11/18 21:44:38;;;;;;;;;8.00;8.00;;;;;;;;4891560;29;45316;-77
2023/11/18 21:47:07;;;;;;;;;6.33;6.33;;;;;;;;4900652;29;45486;-78
2023/11/18 21:49:33;;;;;;;;;7.00;7.00;;;;;;;;4901541;28;45491;-77
2023/11/18 21:51:58;;;;;;;;;10.67;10.00;;;;;;;;4901180;29;45806;-76
2023/11/18 21:54:30;;;;;;;;;6.00;6.00;;;;;;;;4901878;29;45210;-75
2023/11/18 21:56:57;;;;;;;;;7.00;7.00;;;;;;;;4907194;28;45330;-79
2023/11/18 21:59:22;;;;;;;;;7.33;7.33;;;;;;;;4909495;28;45360;-78
2023/11/18 22:01:47;;;;;;;;;6.00;6.00;;;;;;;;4901408;28;45212;-78
2023/11/18 22:04:12;;;;;;;;;7.33;7.33;;;;;;;;4884742;29;45375;-76
2023/11/18 22:06:37;;;;;;;;;12.00;12.00;;;;;;;;4901477;28;45633;-75
2023/11/18 22:09:03;;;;;;;;;7.50;7.25;;;;;;;;4898984;29;45477;-75
2023/11/18 22:11:28;;;;;;;;;7.00;7.00;;;;;;;;4900434;29;45364;-75
2023/11/18 22:13:53;;;;;;;;;6.00;6.00;;;;;;;;4902147;29;45426;-75
2023/11/18 22:16:19;;;;;;;;;7.00;7.00;;;;;;;;4899911;29;45449;-76
2023/11/18 22:18:44;;;;;;;;;7.67;7.33;;;;;;;;4901042;28;45527;-75
2023/11/18 22:21:10;;;;;;;;;8.00;8.00;;;;;;;;4901667;28;45856;-75
2023/11/18 22:23:36;;;;;;;;;9.00;9.00;;;;;;;;4900147;29;45500;-75
2023/11/18 22:26:01;;;;;;;;;7.00;7.00;;;;;;;;4901960;28;45386;-76
2023/11/18 22:28:31;;;;;;;;;4.67;4.67;;;;;;;;4898219;29;47184;-76
2023/11/18 22:30:56;;;;;;;;;6.00;6.00;;;;;;;;4900626;29;47517;-75
2023/11/18 22:33:21;;;;;;;;;8.67;8.00;;;;;;;;4901353;29;45405;-75
2023/11/18 22:35:47;;;;;;;;;9.00;8.00;;;;;;;;4900409;29;45295;-75
2023/11/18 22:38:13;;;;;;;;;5.00;5.00;;;;;;;;4904438;29;45326;-75
2023/11/18 22:40:38;;;;;;;;;6.75;6.75;;;;;;;;4904689;29;45318;-75
2023/11/18 22:43:03;;;;;;;;;6.33;5.00;;;;;;;;4903741;29;45377;-75
2023/11/18 22:45:28;;;;;;;;;7.25;7.25;;;;;;;;4905498;29;45258;-75
2023/11/18 22:47:53;;;;;;;;;7.67;6.67;;;;;;;;4903702;29;45858;-74
2023/11/18 22:50:21;;;;;;;;;9.33;9.33;;;;;;;;4904729;29;46070;-75
2023/11/18 22:52:48;;;;;;;;;6.67;6.67;;;;;;;;4905508;29;45314;-75
2023/11/18 22:55:13;;;;;;;;;7.50;5.25;;;;;;;;4905319;28;45414;-75
2023/11/18 22:57:39;;;;;;;;;8.00;8.00;;;;;;;;4915064;28;45350;-75
2023/11/18 23:00:06;;;;;;;;;7.00;7.00;;;;;;;;4924595;28;45382;-75
2023/11/18 23:02:31;;;;;;;;;7.67;7.67;;;;;;;;4924673;28;45390;-75
2023/11/18 23:05:05;;;;;;;;;8.50;7.75;;;;;;;;4924682;28;45318;-75
2023/11/18 23:07:30;;;;;;;;;8.33;8.33;;;;;;;;4923091;28;46366;-75
2023/11/18 23:09:57;;;;;;;;;7.00;6.50;;;;;;;;4924122;28;45337;-75
2023/11/18 23:12:25;;;;;;;;;7.33;7.33;;;;;;;;4923146;28;45923;-76
2023/11/18 23:14:52;;;;;;;;;6.00;5.75;;;;;;;;4924469;28;45459;-76
2023/11/18 23:17:18;;;;;;;;;10.75;9.00;;;;;;;;4924249;28;45393;-75
2023/11/18 23:19:43;;;;;;;;;5.75;5.75;;;;;;;;4923519;28;45513;-75
2023/11/18 23:22:08;;;;;;;;;7.00;6.50;;;;;;;;4923839;28;45286;-75
2023/11/18 23:24:36;;;;;;;;;4.75;4.75;;;;;;;;4924353;28;45365;-75
2023/11/18 23:27:01;;;;;;;;;10.50;9.00;;;;;;;;4924168;28;45519;-75
2023/11/18 23:29:27;;;;;;;;;5.50;5.50;;;;;;;;4923979;28;46276;-75
2023/11/18 23:31:52;;;;;;;;;7.50;6.00;;;;;;;;4924190;28;45256;-75
2023/11/18 23:34:17;;;;;;;;;4.25;4.25;;;;;;;;4923922;28;45255;-75
2023/11/18 23:36:43;;;;;;;;;5.25;5.25;;;;;;;;4923936;28;45211;-75
2023/11/18 23:39:08;;;;;;;;;3.00;3.00;;;;;;;;4923987;28;45207;-75
2023/11/18 23:41:34;;;;;;;;;6.20;6.20;;;;;;;;4924106;28;45232;-76
2023/11/18 23:43:59;;;;;;;;;5.00;3.50;;;;;;;;4924087;28;45298;-75
2023/11/18 23:46:26;;;;;;;;;1.50;1.50;;;;;;;;4923919;28;45439;-75
2023/11/18 23:48:52;;;;;;;;;7.33;7.00;;;;;;;;4923384;28;45677;-75
2023/11/18 23:51:18;;;;;;;;;4.00;3.25;;;;;;;;4922185;28;45373;-75
2023/11/18 23:53:43;;;;;;;;;6.75;6.00;;;;;;;;4923733;28;45522;-75
2023/11/18 23:56:08;;;;;;;;;5.50;4.25;;;;;;;;4922490;28;47125;-75
2023/11/18 23:58:33;;;;;;;;;4.25;4.00;;;;;;;;4906558;28;45445;-75
